sensor_id;sensor_type;location;lat;lon;timestamp;P1;durP1;ratioP1;P2;durP2;ratioP2
39140;SDS011;24875;48.436;10.298;2023-03-16T00:01:40;5.13;;;3.07;;
39140;SDS011;24875;48.436;10.298;2023-03-16T00:04:07;8.03;;;2.77;;
39140;SDS011;24875;48.436;10.298;2023-03-16T00:06:33;5.13;;;2.77;;
39140;SDS011;24875;48.436;10.298;2023-03-16T00:09:03;5.70;;;2.37;;
39140;SDS011;24875;48.436;10.298;2023-03-16T00:11:29;6.47;;;2.47;;
39140;SDS011;24875;48.436;10.298;2023-03-16T00:13:56;4.63;;;1.83;;
39140;SDS011;24875;48.436;10.298;2023-03-16T00:16:22;7.57;;;3.50;;
39140;SDS011;24875;48.436;10.298;2023-03-16T00:18:49;4.73;;;2.60;;
39140;SDS011;24875;48.436;10.298;2023-03-16T00:21:15;6.33;;;2.63;;
39140;SDS011;24875;48.436;10.298;2023-03-16T00:23:42;7.73;;;3.07;;
39140;SDS011;24875;48.436;10.298;2023-03-16T00:26:09;4.80;;;2.60;;
39140;SDS011;24875;48.436;10.298;2023-03-16T00:28:37;9.83;;;2.57;;
39140;SDS011;24875;48.436;10.298;2023-03-16T00:31:04;5.83;;;3.00;;
39140;SDS011;24875;48.436;10.298;2023-03-16T00:33:32;5.73;;;2.90;;
39140;SDS011;24875;48.436;10.298;2023-03-16T00:35:58;9.23;;;3.20;;
39140;SDS011;24875;48.436;10.298;2023-03-16T00:38:29;7.00;;;2.90;;
39140;SDS011;24875;48.436;10.298;2023-03-16T00:40:58;7.17;;;3.13;;
39140;SDS011;24875;48.436;10.298;2023-03-16T00:43:29;9.60;;;4.20;;
39140;SDS011;24875;48.436;10.298;2023-03-16T00:45:59;7.47;;;3.17;;
39140;SDS011;24875;48.436;10.298;2023-03-16T00:48:30;8.27;;;3.33;;
39140;SDS011;24875;48.436;10.298;2023-03-16T00:50:58;15.87;;;3.43;;
39140;SDS011;24875;48.436;10.298;2023-03-16T00:53:25;5.93;;;3.33;;
39140;SDS011;24875;48.436;10.298;2023-03-16T00:55:51;9.73;;;3.60;;
39140;SDS011;24875;48.436;10.298;2023-03-16T00:58:18;7.33;;;3.13;;
39140;SDS011;24875;48.436;10.298;2023-03-16T01:00:46;6.70;;;3.00;;
39140;SDS011;24875;48.436;10.298;2023-03-16T01:03:13;10.63;;;3.67;;
39140;SDS011;24875;48.436;10.298;2023-03-16T01:05:40;11.03;;;4.33;;
39140;SDS011;24875;48.436;10.298;2023-03-16T01:08:07;9.73;;;4.00;;
39140;SDS011;24875;48.436;10.298;2023-03-16T01:10:34;5.90;;;2.97;;
39140;SDS011;24875;48.436;10.298;2023-03-16T01:13:01;8.03;;;3.80;;
39140;SDS011;24875;48.436;10.298;2023-03-16T01:15:28;10.67;;;3.97;;
39140;SDS011;24875;48.436;10.298;2023-03-16T01:17:56;6.07;;;3.00;;
39140;SDS011;24875;48.436;10.298;2023-03-16T01:20:22;5.70;;;3.10;;
39140;SDS011;24875;48.436;10.298;2023-03-16T01:22:50;7.90;;;3.70;;
39140;SDS011;24875;48.436;10.298;2023-03-16T01:25:17;10.77;;;3.87;;
39140;SDS011;24875;48.436;10.298;2023-03-16T01:27:44;14.83;;;3.93;;
39140;SDS011;24875;48.436;10.298;2023-03-16T01:30:11;13.37;;;5.00;;
39140;SDS011;24875;48.436;10.298;2023-03-16T01:32:38;8.23;;;3.93;;
39140;SDS011;24875;48.436;10.298;2023-03-16T01:35:07;9.37;;;4.07;;
39140;SDS011;24875;48.436;10.298;2023-03-16T01:37:34;8.17;;;3.43;;
39140;SDS011;24875;48.436;10.298;2023-03-16T01:40:00;8.37;;;3.37;;
39140;SDS011;24875;48.436;10.298;2023-03-16T01:42:28;10.30;;;3.90;;
39140;SDS011;24875;48.436;10.298;2023-03-16T01:44:55;7.87;;;3.87;;
39140;SDS011;24875;48.436;10.298;2023-03-16T01:47:25;6.37;;;3.07;;
39140;SDS011;24875;48.436;10.298;2023-03-16T01:49:52;12.87;;;3.60;;
39140;SDS011;24875;48.436;10.298;2023-03-16T01:52:23;8.67;;;3.63;;
39140;SDS011;24875;48.436;10.298;2023-03-16T01:54:53;8.17;;;3.30;;
39140;SDS011;24875;48.436;10.298;2023-03-16T01:57:25;8.67;;;3.53;;
39140;SDS011;24875;48.436;10.298;2023-03-16T01:59:55;8.53;;;2.80;;
39140;SDS011;24875;48.436;10.298;2023-03-16T02:02:43;11.57;;;4.00;;
39140;SDS011;24875;48.436;10.298;2023-03-16T02:05:14;9.63;;;3.87;;
39140;SDS011;24875;48.436;10.298;2023-03-16T02:07:46;7.97;;;3.53;;
39140;SDS011;24875;48.436;10.298;2023-03-16T02:10:15;8.93;;;4.30;;
39140;SDS011;24875;48.436;10.298;2023-03-16T02:12:42;13.63;;;3.80;;
39140;SDS011;24875;48.436;10.298;2023-03-16T02:15:09;9.67;;;3.87;;
39140;SDS011;24875;48.436;10.298;2023-03-16T02:17:37;11.23;;;3.67;;
39140;SDS011;24875;48.436;10.298;2023-03-16T02:20:10;12.20;;;4.33;;
39140;SDS011;24875;48.436;10.298;2023-03-16T02:22:48;7.60;;;4.00;;
39140;SDS011;24875;48.436;10.298;2023-03-16T02:25:18;9.27;;;3.77;;
39140;SDS011;24875;48.436;10.298;2023-03-16T02:27:52;7.77;;;3.80;;
39140;SDS011;24875;48.436;10.298;2023-03-16T02:30:27;11.37;;;3.90;;
39140;SDS011;24875;48.436;10.298;2023-03-16T02:32:54;8.53;;;3.93;;
39140;SDS011;24875;48.436;10.298;2023-03-16T02:35:21;14.03;;;4.23;;
39140;SDS011;24875;48.436;10.298;2023-03-16T02:37:48;8.70;;;3.73;;
39140;SDS011;24875;48.436;10.298;2023-03-16T02:40:18;10.37;;;4.40;;
39140;SDS011;24875;48.436;10.298;2023-03-16T02:42:47;13.10;;;4.00;;
39140;SDS011;24875;48.436;10.298;2023-03-16T02:45:19;5.70;;;3.60;;
39140;SDS011;24875;48.436;10.298;2023-03-16T02:47:47;10.33;;;3.97;;
39140;SDS011;24875;48.436;10.298;2023-03-16T02:50:17;11.03;;;4.37;;
39140;SDS011;24875;48.436;10.298;2023-03-16T02:52:44;12.83;;;3.63;;
39140;SDS011;24875;48.436;10.298;2023-03-16T02:55:12;13.50;;;4.50;;
39140;SDS011;24875;48.436;10.298;2023-03-16T02:57:39;8.27;;;4.73;;
39140;SDS011;24875;48.436;10.298;2023-03-16T03:00:06;8.83;;;4.10;;
39140;SDS011;24875;48.436;10.298;2023-03-16T03:02:37;12.03;;;3.73;;
39140;SDS011;24875;48.436;10.298;2023-03-16T03:05:05;10.53;;;3.63;;
39140;SDS011;24875;48.436;10.298;2023-03-16T03:07:32;6.83;;;3.63;;
39140;SDS011;24875;48.436;10.298;2023-03-16T03:09:58;6.53;;;3.53;;
39140;SDS011;24875;48.436;10.298;2023-03-16T03:12:27;8.33;;;3.47;;
39140;SDS011;24875;48.436;10.298;2023-03-16T03:14:53;6.87;;;3.43;;
39140;SDS011;24875;48.436;10.298;2023-03-16T03:17:21;11.23;;;3.67;;
39140;SDS011;24875;48.436;10.298;2023-03-16T03:19:53;8.80;;;3.80;;
39140;SDS011;24875;48.436;10.298;2023-03-16T03:22:22;7.83;;;4.07;;
39140;SDS011;24875;48.436;10.298;2023-03-16T03:24:48;7.10;;;3.57;;
39140;SDS011;24875;48.436;10.298;2023-03-16T03:27:15;9.33;;;4.03;;
39140;SDS011;24875;48.436;10.298;2023-03-16T03:29:41;6.83;;;3.30;;
39140;SDS011;24875;48.436;10.298;2023-03-16T03:32:08;12.10;;;4.60;;
39140;SDS011;24875;48.436;10.298;2023-03-16T03:34:35;6.27;;;3.53;;
39140;SDS011;24875;48.436;10.298;2023-03-16T03:37:02;6.90;;;3.90;;
39140;SDS011;24875;48.436;10.298;2023-03-16T03:39:30;6.20;;;3.63;;
39140;SDS011;24875;48.436;10.298;2023-03-16T03:41:56;11.47;;;4.10;;
39140;SDS011;24875;48.436;10.298;2023-03-16T03:44:23;9.67;;;4.27;;
39140;SDS011;24875;48.436;10.298;2023-03-16T03:46:51;15.00;;;4.33;;
39140;SDS011;24875;48.436;10.298;2023-03-16T03:49:17;8.63;;;4.43;;
39140;SDS011;24875;48.436;10.298;2023-03-16T03:51:44;10.13;;;4.37;;
39140;SDS011;24875;48.436;10.298;2023-03-16T03:54:11;8.87;;;4.13;;
39140;SDS011;24875;48.436;10.298;2023-03-16T03:56:39;8.00;;;3.80;;
39140;SDS011;24875;48.436;10.298;2023-03-16T03:59:05;11.50;;;4.60;;
39140;SDS011;24875;48.436;10.298;2023-03-16T04:01:32;9.97;;;4.17;;
39140;SDS011;24875;48.436;10.298;2023-03-16T04:03:58;9.20;;;4.53;;
39140;SDS011;24875;48.436;10.298;2023-03-16T04:06:25;9.53;;;4.77;;
39140;SDS011;24875;48.436;10.298;2023-03-16T04:08:51;8.10;;;4.23;;
39140;SDS011;24875;48.436;10.298;2023-03-16T04:11:19;10.60;;;4.73;;
39140;SDS011;24875;48.436;10.298;2023-03-16T04:13:49;8.73;;;4.63;;
39140;SDS011;24875;48.436;10.298;2023-03-16T04:16:16;10.03;;;5.13;;
39140;SDS011;24875;48.436;10.298;2023-03-16T04:18:42;11.43;;;4.10;;
39140;SDS011;24875;48.436;10.298;2023-03-16T04:21:11;12.23;;;5.03;;
39140;SDS011;24875;48.436;10.298;2023-03-16T04:23:39;9.00;;;3.93;;
39140;SDS011;24875;48.436;10.298;2023-03-16T04:26:06;12.37;;;5.07;;
39140;SDS011;24875;48.436;10.298;2023-03-16T04:28:33;10.10;;;4.40;;
39140;SDS011;24875;48.436;10.298;2023-03-16T04:31:01;13.33;;;4.77;;
39140;SDS011;24875;48.436;10.298;2023-03-16T04:33:29;12.83;;;4.20;;
39140;SDS011;24875;48.436;10.298;2023-03-16T04:35:56;8.40;;;4.50;;
39140;SDS011;24875;48.436;10.298;2023-03-16T04:38:22;10.53;;;5.00;;
39140;SDS011;24875;48.436;10.298;2023-03-16T04:40:49;8.33;;;4.17;;
39140;SDS011;24875;48.436;10.298;2023-03-16T04:43:16;9.63;;;3.93;;
39140;SDS011;24875;48.436;10.298;2023-03-16T04:45:44;10.73;;;4.40;;
39140;SDS011;24875;48.436;10.298;2023-03-16T04:48:12;7.43;;;4.37;;
39140;SDS011;24875;48.436;10.298;2023-03-16T04:50:38;15.37;;;5.87;;
39140;SDS011;24875;48.436;10.298;2023-03-16T04:53:05;11.80;;;4.83;;
39140;SDS011;24875;48.436;10.298;2023-03-16T04:55:31;8.67;;;4.70;;
39140;SDS011;24875;48.436;10.298;2023-03-16T04:57:58;8.27;;;4.10;;
39140;SDS011;24875;48.436;10.298;2023-03-16T05:00:25;13.50;;;4.57;;
39140;SDS011;24875;48.436;10.298;2023-03-16T05:02:52;8.80;;;4.37;;
39140;SDS011;24875;48.436;10.298;2023-03-16T05:05:20;9.00;;;4.70;;
39140;SDS011;24875;48.436;10.298;2023-03-16T05:07:47;10.03;;;4.30;;
39140;SDS011;24875;48.436;10.298;2023-03-16T05:10:15;11.67;;;4.80;;
39140;SDS011;24875;48.436;10.298;2023-03-16T05:12:44;8.17;;;4.43;;
39140;SDS011;24875;48.436;10.298;2023-03-16T05:15:10;8.37;;;4.13;;
39140;SDS011;24875;48.436;10.298;2023-03-16T05:17:37;7.67;;;4.73;;
39140;SDS011;24875;48.436;10.298;2023-03-16T05:20:06;13.10;;;5.50;;
39140;SDS011;24875;48.436;10.298;2023-03-16T05:22:38;11.20;;;4.20;;
39140;SDS011;24875;48.436;10.298;2023-03-16T05:25:05;9.50;;;4.70;;
39140;SDS011;24875;48.436;10.298;2023-03-16T05:27:33;9.63;;;4.13;;
39140;SDS011;24875;48.436;10.298;2023-03-16T05:29:59;11.40;;;4.40;;
39140;SDS011;24875;48.436;10.298;2023-03-16T05:32:26;11.83;;;4.57;;
39140;SDS011;24875;48.436;10.298;2023-03-16T05:34:52;12.30;;;5.93;;
39140;SDS011;24875;48.436;10.298;2023-03-16T05:37:19;10.27;;;5.30;;
39140;SDS011;24875;48.436;10.298;2023-03-16T05:39:47;10.60;;;5.00;;
39140;SDS011;24875;48.436;10.298;2023-03-16T05:42:13;9.23;;;4.63;;
39140;SDS011;24875;48.436;10.298;2023-03-16T05:44:40;8.77;;;4.03;;
39140;SDS011;24875;48.436;10.298;2023-03-16T05:47:06;7.93;;;4.17;;
39140;SDS011;24875;48.436;10.298;2023-03-16T05:49:33;11.00;;;4.13;;
39140;SDS011;24875;48.436;10.298;2023-03-16T05:51:59;7.73;;;4.47;;
39140;SDS011;24875;48.436;10.298;2023-03-16T05:54:25;11.43;;;5.33;;
39140;SDS011;24875;48.436;10.298;2023-03-16T05:56:53;9.60;;;4.97;;
39140;SDS011;24875;48.436;10.298;2023-03-16T05:59:20;9.23;;;4.17;;
39140;SDS011;24875;48.436;10.298;2023-03-16T06:01:46;9.27;;;4.07;;
39140;SDS011;24875;48.436;10.298;2023-03-16T06:04:14;9.43;;;4.30;;
39140;SDS011;24875;48.436;10.298;2023-03-16T06:06:41;10.50;;;5.00;;
39140;SDS011;24875;48.436;10.298;2023-03-16T06:09:07;7.90;;;4.37;;
39140;SDS011;24875;48.436;10.298;2023-03-16T06:11:34;11.33;;;4.83;;
39140;SDS011;24875;48.436;10.298;2023-03-16T06:14:02;13.10;;;4.73;;
39140;SDS011;24875;48.436;10.298;2023-03-16T06:16:29;6.10;;;3.90;;
39140;SDS011;24875;48.436;10.298;2023-03-16T06:18:55;9.93;;;4.93;;
39140;SDS011;24875;48.436;10.298;2023-03-16T06:21:22;11.03;;;5.07;;
39140;SDS011;24875;48.436;10.298;2023-03-16T06:23:48;8.77;;;4.03;;
39140;SDS011;24875;48.436;10.298;2023-03-16T06:26:15;12.33;;;4.53;;
39140;SDS011;24875;48.436;10.298;2023-03-16T06:28:41;11.57;;;5.23;;
39140;SDS011;24875;48.436;10.298;2023-03-16T06:31:09;9.60;;;4.37;;
39140;SDS011;24875;48.436;10.298;2023-03-16T06:33:36;10.53;;;4.47;;
39140;SDS011;24875;48.436;10.298;2023-03-16T06:36:03;16.60;;;5.27;;
39140;SDS011;24875;48.436;10.298;2023-03-16T06:38:29;11.47;;;5.63;;
39140;SDS011;24875;48.436;10.298;2023-03-16T06:40:56;12.53;;;4.90;;
39140;SDS011;24875;48.436;10.298;2023-03-16T06:43:22;13.50;;;5.20;;
39140;SDS011;24875;48.436;10.298;2023-03-16T06:45:49;14.13;;;5.67;;
39140;SDS011;24875;48.436;10.298;2023-03-16T06:48:17;24.97;;;5.87;;
39140;SDS011;24875;48.436;10.298;2023-03-16T06:50:43;10.40;;;5.23;;
39140;SDS011;24875;48.436;10.298;2023-03-16T06:53:11;13.40;;;5.83;;
39140;SDS011;24875;48.436;10.298;2023-03-16T06:55:37;10.67;;;5.13;;
39140;SDS011;24875;48.436;10.298;2023-03-16T06:58:04;11.53;;;5.47;;
39140;SDS011;24875;48.436;10.298;2023-03-16T07:00:30;9.77;;;5.33;;
39140;SDS011;24875;48.436;10.298;2023-03-16T07:02:58;14.27;;;6.27;;
39140;SDS011;24875;48.436;10.298;2023-03-16T07:05:26;16.17;;;6.07;;
39140;SDS011;24875;48.436;10.298;2023-03-16T07:07:52;13.73;;;5.87;;
39140;SDS011;24875;48.436;10.298;2023-03-16T07:10:19;12.43;;;6.23;;
39140;SDS011;24875;48.436;10.298;2023-03-16T07:12:46;15.37;;;5.70;;
39140;SDS011;24875;48.436;10.298;2023-03-16T07:15:12;14.03;;;6.20;;
39140;SDS011;24875;48.436;10.298;2023-03-16T07:17:40;13.60;;;6.20;;
39140;SDS011;24875;48.436;10.298;2023-03-16T07:20:08;20.47;;;6.63;;
39140;SDS011;24875;48.436;10.298;2023-03-16T07:22:38;16.57;;;5.67;;
39140;SDS011;24875;48.436;10.298;2023-03-16T07:25:06;15.20;;;7.10;;
39140;SDS011;24875;48.436;10.298;2023-03-16T07:27:33;12.93;;;5.90;;
39140;SDS011;24875;48.436;10.298;2023-03-16T07:29:59;11.33;;;5.83;;
39140;SDS011;24875;48.436;10.298;2023-03-16T07:32:26;17.67;;;6.10;;
39140;SDS011;24875;48.436;10.298;2023-03-16T07:34:53;15.90;;;6.67;;
39140;SDS011;24875;48.436;10.298;2023-03-16T07:37:19;17.67;;;6.73;;
39140;SDS011;24875;48.436;10.298;2023-03-16T07:39:47;16.53;;;7.13;;
39140;SDS011;24875;48.436;10.298;2023-03-16T07:42:14;15.93;;;6.73;;
39140;SDS011;24875;48.436;10.298;2023-03-16T07:44:40;16.47;;;7.13;;
39140;SDS011;24875;48.436;10.298;2023-03-16T07:47:07;14.17;;;6.20;;
39140;SDS011;24875;48.436;10.298;2023-03-16T07:49:37;20.50;;;6.93;;
39140;SDS011;24875;48.436;10.298;2023-03-16T07:52:05;16.23;;;7.33;;
39140;SDS011;24875;48.436;10.298;2023-03-16T07:54:32;18.07;;;7.20;;
39140;SDS011;24875;48.436;10.298;2023-03-16T07:57:00;17.90;;;7.10;;
39140;SDS011;24875;48.436;10.298;2023-03-16T07:59:26;18.53;;;7.13;;
39140;SDS011;24875;48.436;10.298;2023-03-16T08:01:53;21.37;;;8.40;;
39140;SDS011;24875;48.436;10.298;2023-03-16T08:04:19;16.23;;;7.63;;
39140;SDS011;24875;48.436;10.298;2023-03-16T08:06:50;17.03;;;7.67;;
39140;SDS011;24875;48.436;10.298;2023-03-16T08:09:23;22.07;;;7.43;;
39140;SDS011;24875;48.436;10.298;2023-03-16T08:11:51;16.93;;;7.10;;
39140;SDS011;24875;48.436;10.298;2023-03-16T08:14:22;15.57;;;6.97;;
39140;SDS011;24875;48.436;10.298;2023-03-16T08:16:49;25.70;;;7.57;;
39140;SDS011;24875;48.436;10.298;2023-03-16T08:19:19;18.17;;;8.00;;
39140;SDS011;24875;48.436;10.298;2023-03-16T08:21:46;19.13;;;7.37;;
39140;SDS011;24875;48.436;10.298;2023-03-16T08:24:17;14.53;;;7.33;;
39140;SDS011;24875;48.436;10.298;2023-03-16T08:26:46;20.63;;;7.13;;
39140;SDS011;24875;48.436;10.298;2023-03-16T08:29:15;16.70;;;7.03;;
39140;SDS011;24875;48.436;10.298;2023-03-16T08:31:44;17.10;;;7.23;;
39140;SDS011;24875;48.436;10.298;2023-03-16T08:34:36;15.17;;;6.43;;
39140;SDS011;24875;48.436;10.298;2023-03-16T08:37:04;17.87;;;7.07;;
39140;SDS011;24875;48.436;10.298;2023-03-16T08:39:32;17.03;;;6.37;;
39140;SDS011;24875;48.436;10.298;2023-03-16T08:42:00;12.63;;;5.77;;
39140;SDS011;24875;48.436;10.298;2023-03-16T08:44:29;17.87;;;6.97;;
39140;SDS011;24875;48.436;10.298;2023-03-16T08:46:58;13.27;;;6.60;;
39140;SDS011;24875;48.436;10.298;2023-03-16T08:49:26;15.97;;;5.90;;
39140;SDS011;24875;48.436;10.298;2023-03-16T08:51:55;17.70;;;6.47;;
39140;SDS011;24875;48.436;10.298;2023-03-16T08:54:24;13.83;;;6.40;;
39140;SDS011;24875;48.436;10.298;2023-03-16T08:56:52;17.57;;;7.60;;
39140;SDS011;24875;48.436;10.298;2023-03-16T08:59:21;15.93;;;6.80;;
39140;SDS011;24875;48.436;10.298;2023-03-16T09:01:48;13.67;;;5.53;;
39140;SDS011;24875;48.436;10.298;2023-03-16T09:04:17;16.17;;;6.77;;
39140;SDS011;24875;48.436;10.298;2023-03-16T09:06:46;19.70;;;7.53;;
39140;SDS011;24875;48.436;10.298;2023-03-16T09:09:15;17.70;;;6.77;;
39140;SDS011;24875;48.436;10.298;2023-03-16T09:11:43;14.63;;;6.27;;
39140;SDS011;24875;48.436;10.298;2023-03-16T09:14:11;14.80;;;6.47;;
39140;SDS011;24875;48.436;10.298;2023-03-16T09:16:39;17.07;;;7.00;;
39140;SDS011;24875;48.436;10.298;2023-03-16T09:19:08;23.70;;;7.70;;
39140;SDS011;24875;48.436;10.298;2023-03-16T09:21:37;16.67;;;6.93;;
39140;SDS011;24875;48.436;10.298;2023-03-16T09:24:05;13.93;;;5.87;;
39140;SDS011;24875;48.436;10.298;2023-03-16T09:26:33;17.33;;;6.33;;
39140;SDS011;24875;48.436;10.298;2023-03-16T09:29:01;15.40;;;7.13;;
39140;SDS011;24875;48.436;10.298;2023-03-16T09:31:31;18.30;;;6.73;;
39140;SDS011;24875;48.436;10.298;2023-03-16T09:34:00;16.03;;;7.07;;
39140;SDS011;24875;48.436;10.298;2023-03-16T09:36:29;15.43;;;7.27;;
39140;SDS011;24875;48.436;10.298;2023-03-16T09:38:59;17.37;;;7.33;;
39140;SDS011;24875;48.436;10.298;2023-03-16T09:41:33;15.97;;;6.63;;
39140;SDS011;24875;48.436;10.298;2023-03-16T09:44:16;16.83;;;6.80;;
39140;SDS011;24875;48.436;10.298;2023-03-16T09:46:53;14.73;;;7.03;;
39140;SDS011;24875;48.436;10.298;2023-03-16T09:49:26;14.03;;;6.67;;
39140;SDS011;24875;48.436;10.298;2023-03-16T09:52:02;15.37;;;6.33;;
39140;SDS011;24875;48.436;10.298;2023-03-16T09:54:40;12.43;;;5.53;;
39140;SDS011;24875;48.436;10.298;2023-03-16T09:57:16;15.93;;;6.63;;
39140;SDS011;24875;48.436;10.298;2023-03-16T09:59:52;17.07;;;6.90;;
39140;SDS011;24875;48.436;10.298;2023-03-16T10:02:27;18.23;;;6.77;;
39140;SDS011;24875;48.436;10.298;2023-03-16T10:05:12;14.73;;;5.83;;
39140;SDS011;24875;48.436;10.298;2023-03-16T10:07:45;10.73;;;5.40;;
39140;SDS011;24875;48.436;10.298;2023-03-16T10:10:25;10.87;;;5.67;;
39140;SDS011;24875;48.436;10.298;2023-03-16T10:13:12;9.23;;;5.13;;
39140;SDS011;24875;48.436;10.298;2023-03-16T10:15:51;12.20;;;5.70;;
39140;SDS011;24875;48.436;10.298;2023-03-16T10:18:22;11.63;;;6.10;;
39140;SDS011;24875;48.436;10.298;2023-03-16T10:20:54;16.50;;;6.30;;
39140;SDS011;24875;48.436;10.298;2023-03-16T10:23:23;11.83;;;5.30;;
39140;SDS011;24875;48.436;10.298;2023-03-16T10:25:53;13.07;;;5.97;;
39140;SDS011;24875;48.436;10.298;2023-03-16T10:28:22;11.83;;;5.40;;
39140;SDS011;24875;48.436;10.298;2023-03-16T10:30:52;10.57;;;5.23;;
39140;SDS011;24875;48.436;10.298;2023-03-16T10:33:22;11.97;;;5.03;;
39140;SDS011;24875;48.436;10.298;2023-03-16T10:35:53;15.53;;;6.07;;
39140;SDS011;24875;48.436;10.298;2023-03-16T10:38:27;10.27;;;5.20;;
39140;SDS011;24875;48.436;10.298;2023-03-16T10:40:58;10.47;;;5.10;;
39140;SDS011;24875;48.436;10.298;2023-03-16T10:43:27;7.87;;;4.67;;
39140;SDS011;24875;48.436;10.298;2023-03-16T10:46:00;10.77;;;5.03;;
39140;SDS011;24875;48.436;10.298;2023-03-16T10:48:29;7.53;;;4.10;;
39140;SDS011;24875;48.436;10.298;2023-03-16T10:50:59;7.83;;;4.50;;
39140;SDS011;24875;48.436;10.298;2023-03-16T10:53:32;8.50;;;4.63;;
39140;SDS011;24875;48.436;10.298;2023-03-16T10:56:09;10.77;;;4.53;;
39140;SDS011;24875;48.436;10.298;2023-03-16T10:58:38;10.27;;;4.57;;
39140;SDS011;24875;48.436;10.298;2023-03-16T11:01:10;9.57;;;4.13;;
39140;SDS011;24875;48.436;10.298;2023-03-16T11:03:46;7.53;;;3.90;;
39140;SDS011;24875;48.436;10.298;2023-03-16T11:06:19;7.43;;;4.50;;
39140;SDS011;24875;48.436;10.298;2023-03-16T11:08:49;7.23;;;3.47;;
39140;SDS011;24875;48.436;10.298;2023-03-16T11:11:22;12.77;;;4.10;;
39140;SDS011;24875;48.436;10.298;2023-03-16T11:13:54;9.83;;;4.23;;
39140;SDS011;24875;48.436;10.298;2023-03-16T11:16:27;6.20;;;3.50;;
39140;SDS011;24875;48.436;10.298;2023-03-16T11:19:01;7.83;;;3.87;;
39140;SDS011;24875;48.436;10.298;2023-03-16T11:21:37;6.87;;;3.90;;
39140;SDS011;24875;48.436;10.298;2023-03-16T11:24:14;8.37;;;3.33;;
39140;SDS011;24875;48.436;10.298;2023-03-16T11:26:52;8.43;;;3.70;;
39140;SDS011;24875;48.436;10.298;2023-03-16T11:29:23;6.30;;;3.43;;
39140;SDS011;24875;48.436;10.298;2023-03-16T11:31:55;7.83;;;2.80;;
39140;SDS011;24875;48.436;10.298;2023-03-16T11:34:27;5.73;;;3.43;;
39140;SDS011;24875;48.436;10.298;2023-03-16T11:36:56;7.63;;;3.47;;
39140;SDS011;24875;48.436;10.298;2023-03-16T11:39:30;6.50;;;3.03;;
39140;SDS011;24875;48.436;10.298;2023-03-16T11:44:54;6.53;;;3.50;;
39140;SDS011;24875;48.436;10.298;2023-03-16T11:50:26;4.43;;;2.47;;
39140;SDS011;24875;48.436;10.298;2023-03-16T11:53:01;4.60;;;2.73;;
39140;SDS011;24875;48.436;10.298;2023-03-16T11:55:38;5.27;;;2.93;;
39140;SDS011;24875;48.436;10.298;2023-03-16T12:01:07;5.30;;;3.07;;
39140;SDS011;24875;48.436;10.298;2023-03-16T12:03:48;5.83;;;2.40;;
39140;SDS011;24875;48.436;10.298;2023-03-16T12:06:33;6.50;;;2.50;;
39140;SDS011;24875;48.436;10.298;2023-03-16T12:09:24;5.67;;;2.70;;
39140;SDS011;24875;48.436;10.298;2023-03-16T12:12:19;6.40;;;2.43;;
39140;SDS011;24875;48.436;10.298;2023-03-16T12:15:01;4.57;;;2.70;;
39140;SDS011;24875;48.436;10.298;2023-03-16T12:17:43;7.53;;;3.27;;
39140;SDS011;24875;48.436;10.298;2023-03-16T12:20:15;3.17;;;2.03;;
39140;SDS011;24875;48.436;10.298;2023-03-16T12:22:46;6.97;;;2.80;;
39140;SDS011;24875;48.436;10.298;2023-03-16T12:25:19;5.87;;;2.60;;
39140;SDS011;24875;48.436;10.298;2023-03-16T12:27:49;5.90;;;3.00;;
39140;SDS011;24875;48.436;10.298;2023-03-16T12:30:26;3.33;;;1.87;;
39140;SDS011;24875;48.436;10.298;2023-03-16T12:33:04;4.03;;;2.07;;
39140;SDS011;24875;48.436;10.298;2023-03-16T12:35:39;6.50;;;2.33;;
39140;SDS011;24875;48.436;10.298;2023-03-16T12:38:21;6.93;;;2.50;;
39140;SDS011;24875;48.436;10.298;2023-03-16T12:40:59;7.17;;;2.67;;
39140;SDS011;24875;48.436;10.298;2023-03-16T12:43:39;4.80;;;2.80;;
39140;SDS011;24875;48.436;10.298;2023-03-16T12:46:20;7.03;;;2.80;;
39140;SDS011;24875;48.436;10.298;2023-03-16T12:48:55;4.37;;;2.50;;
39140;SDS011;24875;48.436;10.298;2023-03-16T12:51:31;5.10;;;2.70;;
39140;SDS011;24875;48.436;10.298;2023-03-16T12:54:00;6.27;;;2.50;;
39140;SDS011;24875;48.436;10.298;2023-03-16T12:56:30;6.37;;;2.40;;
39140;SDS011;24875;48.436;10.298;2023-03-16T12:59:00;7.27;;;2.80;;
39140;SDS011;24875;48.436;10.298;2023-03-16T13:01:37;5.87;;;2.73;;
39140;SDS011;24875;48.436;10.298;2023-03-16T13:04:09;4.10;;;2.30;;
39140;SDS011;24875;48.436;10.298;2023-03-16T13:06:42;5.50;;;2.43;;
39140;SDS011;24875;48.436;10.298;2023-03-16T13:09:12;5.07;;;3.10;;
39140;SDS011;24875;48.436;10.298;2023-03-16T13:11:46;5.20;;;3.00;;
39140;SDS011;24875;48.436;10.298;2023-03-16T13:14:16;5.57;;;2.60;;
39140;SDS011;24875;48.436;10.298;2023-03-16T13:17:04;4.60;;;2.23;;
39140;SDS011;24875;48.436;10.298;2023-03-16T13:19:57;3.97;;;2.60;;
39140;SDS011;24875;48.436;10.298;2023-03-16T13:22:28;3.83;;;2.50;;
39140;SDS011;24875;48.436;10.298;2023-03-16T13:25:13;3.67;;;1.80;;
39140;SDS011;24875;48.436;10.298;2023-03-16T13:27:47;6.97;;;1.90;;
39140;SDS011;24875;48.436;10.298;2023-03-16T13:30:18;4.60;;;1.87;;
39140;SDS011;24875;48.436;10.298;2023-03-16T13:32:49;2.97;;;1.70;;
39140;SDS011;24875;48.436;10.298;2023-03-16T13:35:19;5.03;;;2.30;;
39140;SDS011;24875;48.436;10.298;2023-03-16T13:37:52;3.37;;;2.07;;
39140;SDS011;24875;48.436;10.298;2023-03-16T13:40:22;4.07;;;2.10;;
39140;SDS011;24875;48.436;10.298;2023-03-16T13:42:51;3.57;;;1.80;;
39140;SDS011;24875;48.436;10.298;2023-03-16T13:45:21;6.60;;;2.40;;
39140;SDS011;24875;48.436;10.298;2023-03-16T13:47:51;3.30;;;1.67;;
39140;SDS011;24875;48.436;10.298;2023-03-16T13:50:19;5.17;;;1.83;;
39140;SDS011;24875;48.436;10.298;2023-03-16T13:52:51;2.83;;;1.73;;
39140;SDS011;24875;48.436;10.298;2023-03-16T13:55:25;4.63;;;2.27;;
39140;SDS011;24875;48.436;10.298;2023-03-16T13:57:57;4.60;;;2.50;;
39140;SDS011;24875;48.436;10.298;2023-03-16T14:00:26;5.67;;;2.57;;
39140;SDS011;24875;48.436;10.298;2023-03-16T14:02:59;5.53;;;2.63;;
39140;SDS011;24875;48.436;10.298;2023-03-16T14:05:34;4.77;;;2.57;;
39140;SDS011;24875;48.436;10.298;2023-03-16T14:08:02;7.93;;;2.77;;
39140;SDS011;24875;48.436;10.298;2023-03-16T14:10:30;5.53;;;3.00;;
39140;SDS011;24875;48.436;10.298;2023-03-16T14:13:05;6.03;;;2.63;;
39140;SDS011;24875;48.436;10.298;2023-03-16T14:15:35;4.70;;;2.83;;
39140;SDS011;24875;48.436;10.298;2023-03-16T14:18:10;7.80;;;2.80;;
39140;SDS011;24875;48.436;10.298;2023-03-16T14:20:40;6.17;;;2.80;;
39140;SDS011;24875;48.436;10.298;2023-03-16T14:23:19;6.43;;;3.27;;
39140;SDS011;24875;48.436;10.298;2023-03-16T14:25:48;6.67;;;2.83;;
39140;SDS011;24875;48.436;10.298;2023-03-16T14:28:18;4.97;;;2.80;;
39140;SDS011;24875;48.436;10.298;2023-03-16T14:30:50;5.63;;;2.70;;
39140;SDS011;24875;48.436;10.298;2023-03-16T14:33:26;4.43;;;2.83;;
39140;SDS011;24875;48.436;10.298;2023-03-16T14:35:56;5.70;;;2.67;;
39140;SDS011;24875;48.436;10.298;2023-03-16T14:38:28;5.80;;;3.20;;
39140;SDS011;24875;48.436;10.298;2023-03-16T14:41:00;6.27;;;2.67;;
39140;SDS011;24875;48.436;10.298;2023-03-16T14:43:32;5.63;;;2.80;;
39140;SDS011;24875;48.436;10.298;2023-03-16T14:46:02;6.97;;;2.97;;
39140;SDS011;24875;48.436;10.298;2023-03-16T14:48:33;5.10;;;2.77;;
39140;SDS011;24875;48.436;10.298;2023-03-16T14:51:01;4.77;;;2.97;;
39140;SDS011;24875;48.436;10.298;2023-03-16T14:53:30;6.43;;;2.77;;